sensor_id;sensor_type;location;lat;lon;timestamp;P1;durP1;ratioP1;P2;durP2;ratioP2
76636;SDS011;65532;52.124;5.480;2023-04-15T00:01:44;7.13;;;4.40;;
76636;SDS011;65532;52.124;5.480;2023-04-15T00:04:10;7.57;;;6.50;;
76636;SDS011;65532;52.124;5.480;2023-04-15T00:06:37;5.78;;;3.90;;
76636;SDS011;65532;52.124;5.480;2023-04-15T00:09:04;6.30;;;4.07;;
76636;SDS011;65532;52.124;5.480;2023-04-15T00:11:31;6.80;;;3.67;;
76636;SDS011;65532;52.124;5.480;2023-04-15T00:13:57;7.78;;;2.90;;
76636;SDS011;65532;52.124;5.480;2023-04-15T00:16:24;6.30;;;3.20;;
76636;SDS011;65532;52.124;5.480;2023-04-15T00:18:50;7.18;;;4.80;;
76636;SDS011;65532;52.124;5.480;2023-04-15T00:21:17;7.55;;;3.20;;
76636;SDS011;65532;52.124;5.480;2023-04-15T00:23:43;7.28;;;3.45;;
76636;SDS011;65532;52.124;5.480;2023-04-15T00:26:10;7.18;;;3.88;;
76636;SDS011;65532;52.124;5.480;2023-04-15T00:28:37;7.70;;;3.63;;
76636;SDS011;65532;52.124;5.480;2023-04-15T00:31:04;8.02;;;4.45;;
76636;SDS011;65532;52.124;5.480;2023-04-15T00:33:31;5.53;;;3.10;;
76636;SDS011;65532;52.124;5.480;2023-04-15T00:35:57;8.77;;;3.78;;
76636;SDS011;65532;52.124;5.480;2023-04-15T00:38:24;11.00;;;4.95;;
76636;SDS011;65532;52.124;5.480;2023-04-15T00:40:51;9.52;;;4.88;;
76636;SDS011;65532;52.124;5.480;2023-04-15T00:43:18;7.75;;;4.38;;
76636;SDS011;65532;52.124;5.480;2023-04-15T00:45:45;10.13;;;4.63;;
76636;SDS011;65532;52.124;5.480;2023-04-15T00:48:12;5.95;;;3.42;;
76636;SDS011;65532;52.124;5.480;2023-04-15T00:50:39;7.90;;;3.60;;
76636;SDS011;65532;52.124;5.480;2023-04-15T00:53:06;7.32;;;4.07;;
76636;SDS011;65532;52.124;5.480;2023-04-15T00:55:32;9.52;;;4.35;;
76636;SDS011;65532;52.124;5.480;2023-04-15T00:57:58;6.80;;;3.80;;
76636;SDS011;65532;52.124;5.480;2023-04-15T01:00:25;8.63;;;4.35;;
76636;SDS011;65532;52.124;5.480;2023-04-15T01:02:52;5.50;;;3.13;;
76636;SDS011;65532;52.124;5.480;2023-04-15T01:05:19;8.23;;;4.93;;
76636;SDS011;65532;52.124;5.480;2023-04-15T01:07:46;7.10;;;3.78;;
76636;SDS011;65532;52.124;5.480;2023-04-15T01:10:13;5.80;;;2.67;;
76636;SDS011;65532;52.124;5.480;2023-04-15T01:12:41;13.93;;;5.18;;
76636;SDS011;65532;52.124;5.480;2023-04-15T01:15:08;6.82;;;4.50;;
76636;SDS011;65532;52.124;5.480;2023-04-15T01:17:36;6.38;;;3.90;;
76636;SDS011;65532;52.124;5.480;2023-04-15T01:20:05;10.05;;;3.35;;
76636;SDS011;65532;52.124;5.480;2023-04-15T01:22:35;6.30;;;4.30;;
76636;SDS011;65532;52.124;5.480;2023-04-15T01:25:10;8.10;;;4.60;;
76636;SDS011;65532;52.124;5.480;2023-04-15T01:27:42;7.13;;;3.30;;
76636;SDS011;65532;52.124;5.480;2023-04-15T01:30:09;8.95;;;5.10;;
76636;SDS011;65532;52.124;5.480;2023-04-15T01:32:36;8.00;;;5.03;;
76636;SDS011;65532;52.124;5.480;2023-04-15T01:35:03;7.93;;;4.47;;
76636;SDS011;65532;52.124;5.480;2023-04-15T01:37:30;7.68;;;4.57;;
76636;SDS011;65532;52.124;5.480;2023-04-15T01:39:57;8.45;;;4.85;;
76636;SDS011;65532;52.124;5.480;2023-04-15T01:42:24;5.13;;;3.30;;
76636;SDS011;65532;52.124;5.480;2023-04-15T01:44:50;9.38;;;3.78;;
76636;SDS011;65532;52.124;5.480;2023-04-15T01:47:17;9.07;;;4.88;;
76636;SDS011;65532;52.124;5.480;2023-04-15T01:49:43;6.63;;;4.63;;
76636;SDS011;65532;52.124;5.480;2023-04-15T01:52:10;10.27;;;4.10;;
76636;SDS011;65532;52.124;5.480;2023-04-15T01:54:38;6.55;;;3.90;;
76636;SDS011;65532;52.124;5.480;2023-04-15T01:57:05;11.98;;;3.72;;
76636;SDS011;65532;52.124;5.480;2023-04-15T01:59:31;6.53;;;4.47;;
76636;SDS011;65532;52.124;5.480;2023-04-15T02:01:58;15.63;;;4.43;;
76636;SDS011;65532;52.124;5.480;2023-04-15T02:04:25;7.68;;;4.10;;
76636;SDS011;65532;52.124;5.480;2023-04-15T02:06:53;5.60;;;3.05;;
76636;SDS011;65532;52.124;5.480;2023-04-15T02:09:20;7.68;;;5.18;;
76636;SDS011;65532;52.124;5.480;2023-04-15T02:11:46;9.25;;;4.97;;
76636;SDS011;65532;52.124;5.480;2023-04-15T02:14:13;8.43;;;4.32;;
76636;SDS011;65532;52.124;5.480;2023-04-15T02:16:39;8.23;;;3.17;;
76636;SDS011;65532;52.124;5.480;2023-04-15T02:19:06;10.70;;;5.45;;
76636;SDS011;65532;52.124;5.480;2023-04-15T02:21:35;7.25;;;4.85;;
76636;SDS011;65532;52.124;5.480;2023-04-15T02:24:02;8.25;;;3.70;;
76636;SDS011;65532;52.124;5.480;2023-04-15T02:26:29;6.35;;;4.25;;
76636;SDS011;65532;52.124;5.480;2023-04-15T02:28:58;6.38;;;4.07;;
76636;SDS011;65532;52.124;5.480;2023-04-15T02:31:25;6.50;;;3.83;;
76636;SDS011;65532;52.124;5.480;2023-04-15T02:33:51;5.65;;;4.35;;
76636;SDS011;65532;52.124;5.480;2023-04-15T02:36:18;7.75;;;4.53;;
76636;SDS011;65532;52.124;5.480;2023-04-15T02:38:46;5.30;;;2.33;;
76636;SDS011;65532;52.124;5.480;2023-04-15T02:41:14;6.88;;;3.78;;
76636;SDS011;65532;52.124;5.480;2023-04-15T02:43:42;5.20;;;3.47;;
76636;SDS011;65532;52.124;5.480;2023-04-15T02:46:10;6.28;;;2.92;;
76636;SDS011;65532;52.124;5.480;2023-04-15T02:48:39;6.97;;;2.50;;
76636;SDS011;65532;52.124;5.480;2023-04-15T02:51:25;5.82;;;2.00;;
76636;SDS011;65532;52.124;5.480;2023-04-15T02:53:56;8.02;;;2.47;;
76636;SDS011;65532;52.124;5.480;2023-04-15T02:56:23;5.28;;;3.50;;
76636;SDS011;65532;52.124;5.480;2023-04-15T02:58:49;5.68;;;2.80;;
76636;SDS011;65532;52.124;5.480;2023-04-15T03:01:16;4.93;;;3.65;;
76636;SDS011;65532;52.124;5.480;2023-04-15T03:03:43;5.03;;;3.17;;
76636;SDS011;65532;52.124;5.480;2023-04-15T03:06:09;6.18;;;2.20;;
76636;SDS011;65532;52.124;5.480;2023-04-15T03:08:36;5.15;;;4.35;;
76636;SDS011;65532;52.124;5.480;2023-04-15T03:11:02;6.53;;;2.70;;
76636;SDS011;65532;52.124;5.480;2023-04-15T03:13:31;6.63;;;2.38;;
76636;SDS011;65532;52.124;5.480;2023-04-15T03:16:01;5.22;;;2.08;;
76636;SDS011;65532;52.124;5.480;2023-04-15T03:18:29;8.52;;;4.97;;
76636;SDS011;65532;52.124;5.480;2023-04-15T03:20:59;10.18;;;2.30;;
76636;SDS011;65532;52.124;5.480;2023-04-15T03:23:27;6.55;;;3.00;;
76636;SDS011;65532;52.124;5.480;2023-04-15T03:25:54;6.70;;;3.25;;
76636;SDS011;65532;52.124;5.480;2023-04-15T03:28:23;5.95;;;2.38;;
76636;SDS011;65532;52.124;5.480;2023-04-15T03:30:50;4.85;;;2.38;;
76636;SDS011;65532;52.124;5.480;2023-04-15T03:33:16;7.13;;;4.03;;
76636;SDS011;65532;52.124;5.480;2023-04-15T03:35:43;5.63;;;4.10;;
76636;SDS011;65532;52.124;5.480;2023-04-15T03:38:09;6.00;;;3.63;;
76636;SDS011;65532;52.124;5.480;2023-04-15T03:40:36;6.25;;;4.30;;
76636;SDS011;65532;52.124;5.480;2023-04-15T03:43:02;5.97;;;3.90;;
76636;SDS011;65532;52.124;5.480;2023-04-15T03:45:28;6.13;;;3.72;;
76636;SDS011;65532;52.124;5.480;2023-04-15T03:47:55;8.40;;;4.63;;
76636;SDS011;65532;52.124;5.480;2023-04-15T03:50:36;9.18;;;3.83;;
76636;SDS011;65532;52.124;5.480;2023-04-15T03:53:02;6.47;;;3.05;;
76636;SDS011;65532;52.124;5.480;2023-04-15T03:55:29;5.78;;;2.55;;
76636;SDS011;65532;52.124;5.480;2023-04-15T03:57:55;6.68;;;2.80;;
76636;SDS011;65532;52.124;5.480;2023-04-15T04:00:22;5.40;;;3.80;;
76636;SDS011;65532;52.124;5.480;2023-04-15T04:02:48;7.18;;;4.05;;
76636;SDS011;65532;52.124;5.480;2023-04-15T04:05:15;8.13;;;3.38;;
76636;SDS011;65532;52.124;5.480;2023-04-15T04:07:41;4.20;;;2.30;;
76636;SDS011;65532;52.124;5.480;2023-04-15T04:10:08;10.30;;;2.22;;
76636;SDS011;65532;52.124;5.480;2023-04-15T04:12:34;5.93;;;2.45;;
76636;SDS011;65532;52.124;5.480;2023-04-15T04:15:01;7.88;;;3.15;;
76636;SDS011;65532;52.124;5.480;2023-04-15T04:17:28;7.63;;;3.78;;
76636;SDS011;65532;52.124;5.480;2023-04-15T04:19:54;6.43;;;3.40;;
76636;SDS011;65532;52.124;5.480;2023-04-15T04:22:21;7.45;;;3.60;;
76636;SDS011;65532;52.124;5.480;2023-04-15T04:24:49;8.32;;;3.33;;
76636;SDS011;65532;52.124;5.480;2023-04-15T04:27:16;9.32;;;4.55;;
76636;SDS011;65532;52.124;5.480;2023-04-15T04:29:42;9.00;;;4.32;;
76636;SDS011;65532;52.124;5.480;2023-04-15T04:32:09;6.15;;;2.28;;
76636;SDS011;65532;52.124;5.480;2023-04-15T04:34:35;6.35;;;2.78;;
76636;SDS011;65532;52.124;5.480;2023-04-15T04:37:02;7.85;;;2.40;;
76636;SDS011;65532;52.124;5.480;2023-04-15T04:39:28;7.65;;;3.90;;
76636;SDS011;65532;52.124;5.480;2023-04-15T04:41:55;6.72;;;4.18;;
76636;SDS011;65532;52.124;5.480;2023-04-15T04:44:21;6.75;;;3.97;;
76636;SDS011;65532;52.124;5.480;2023-04-15T04:46:48;6.55;;;3.95;;
76636;SDS011;65532;52.124;5.480;2023-04-15T04:49:14;7.68;;;4.35;;
76636;SDS011;65532;52.124;5.480;2023-04-15T04:51:40;6.53;;;3.00;;
76636;SDS011;65532;52.124;5.480;2023-04-15T04:54:07;5.43;;;2.42;;
76636;SDS011;65532;52.124;5.480;2023-04-15T04:56:33;6.93;;;2.75;;
76636;SDS011;65532;52.124;5.480;2023-04-15T04:59:00;7.72;;;4.68;;
76636;SDS011;65532;52.124;5.480;2023-04-15T05:01:27;5.43;;;2.42;;
76636;SDS011;65532;52.124;5.480;2023-04-15T05:03:53;8.38;;;2.60;;
76636;SDS011;65532;52.124;5.480;2023-04-15T05:06:20;6.03;;;3.40;;
76636;SDS011;65532;52.124;5.480;2023-04-15T05:08:47;6.85;;;5.85;;
76636;SDS011;65532;52.124;5.480;2023-04-15T05:11:13;9.32;;;3.38;;
76636;SDS011;65532;52.124;5.480;2023-04-15T05:13:40;6.95;;;4.20;;
76636;SDS011;65532;52.124;5.480;2023-04-15T05:16:06;7.90;;;4.05;;
76636;SDS011;65532;52.124;5.480;2023-04-15T05:18:33;5.57;;;3.40;;
76636;SDS011;65532;52.124;5.480;2023-04-15T05:21:00;8.23;;;3.72;;
76636;SDS011;65532;52.124;5.480;2023-04-15T05:23:27;7.95;;;5.05;;
76636;SDS011;65532;52.124;5.480;2023-04-15T05:25:54;9.55;;;4.47;;
76636;SDS011;65532;52.124;5.480;2023-04-15T05:28:20;8.25;;;4.35;;
76636;SDS011;65532;52.124;5.480;2023-04-15T05:30:47;7.93;;;2.88;;
76636;SDS011;65532;52.124;5.480;2023-04-15T05:33:14;6.45;;;3.15;;
76636;SDS011;65532;52.124;5.480;2023-04-15T05:35:40;5.40;;;3.50;;
76636;SDS011;65532;52.124;5.480;2023-04-15T05:38:07;6.97;;;3.13;;
76636;SDS011;65532;52.124;5.480;2023-04-15T05:40:33;8.43;;;2.90;;
76636;SDS011;65532;52.124;5.480;2023-04-15T05:43:00;5.78;;;3.10;;
76636;SDS011;65532;52.124;5.480;2023-04-15T05:45:26;7.05;;;4.60;;
76636;SDS011;65532;52.124;5.480;2023-04-15T05:47:53;10.95;;;3.42;;
76636;SDS011;65532;52.124;5.480;2023-04-15T05:50:20;6.00;;;2.72;;
76636;SDS011;65532;52.124;5.480;2023-04-15T05:52:47;5.72;;;2.72;;
76636;SDS011;65532;52.124;5.480;2023-04-15T05:55:13;7.93;;;4.13;;
76636;SDS011;65532;52.124;5.480;2023-04-15T05:57:40;6.50;;;2.75;;
76636;SDS011;65532;52.124;5.480;2023-04-15T06:00:06;7.55;;;3.35;;
76636;SDS011;65532;52.124;5.480;2023-04-15T06:02:36;6.53;;;2.97;;
76636;SDS011;65532;52.124;5.480;2023-04-15T06:05:03;6.90;;;3.53;;
76636;SDS011;65532;52.124;5.480;2023-04-15T06:07:35;9.95;;;4.50;;
76636;SDS011;65532;52.124;5.480;2023-04-15T06:10:02;8.55;;;4.70;;
76636;SDS011;65532;52.124;5.480;2023-04-15T06:12:30;7.10;;;4.07;;
76636;SDS011;65532;52.124;5.480;2023-04-15T06:14:57;8.40;;;4.43;;
76636;SDS011;65532;52.124;5.480;2023-04-15T06:17:25;8.98;;;4.25;;
76636;SDS011;65532;52.124;5.480;2023-04-15T06:19:52;7.22;;;3.92;;
76636;SDS011;65532;52.124;5.480;2023-04-15T06:22:22;8.80;;;4.68;;
76636;SDS011;65532;52.124;5.480;2023-04-15T06:24:49;7.03;;;4.05;;
76636;SDS011;65532;52.124;5.480;2023-04-15T06:27:16;8.32;;;4.72;;
76636;SDS011;65532;52.124;5.480;2023-04-15T06:29:43;6.80;;;4.18;;
76636;SDS011;65532;52.124;5.480;2023-04-15T06:32:10;9.27;;;4.60;;
76636;SDS011;65532;52.124;5.480;2023-04-15T06:34:38;8.93;;;5.35;;
76636;SDS011;65532;52.124;5.480;2023-04-15T06:37:04;8.57;;;5.10;;
76636;SDS011;65532;52.124;5.480;2023-04-15T06:39:31;7.57;;;4.97;;
76636;SDS011;65532;52.124;5.480;2023-04-15T06:41:58;10.63;;;5.85;;
76636;SDS011;65532;52.124;5.480;2023-04-15T06:44:24;11.38;;;5.28;;
76636;SDS011;65532;52.124;5.480;2023-04-15T06:46:51;11.93;;;6.63;;
76636;SDS011;65532;52.124;5.480;2023-04-15T06:49:17;9.35;;;5.40;;
76636;SDS011;65532;52.124;5.480;2023-04-15T06:51:44;9.90;;;5.82;;
76636;SDS011;65532;52.124;5.480;2023-04-15T06:54:10;8.57;;;3.72;;
76636;SDS011;65532;52.124;5.480;2023-04-15T06:56:37;11.38;;;4.82;;
76636;SDS011;65532;52.124;5.480;2023-04-15T06:59:03;8.10;;;4.78;;
76636;SDS011;65532;52.124;5.480;2023-04-15T07:01:30;7.60;;;3.92;;
76636;SDS011;65532;52.124;5.480;2023-04-15T07:03:56;9.65;;;5.72;;
76636;SDS011;65532;52.124;5.480;2023-04-15T07:06:22;7.65;;;5.32;;
76636;SDS011;65532;52.124;5.480;2023-04-15T07:08:49;7.03;;;4.00;;
76636;SDS011;65532;52.124;5.480;2023-04-15T07:11:16;11.95;;;5.50;;
76636;SDS011;65532;52.124;5.480;2023-04-15T07:13:43;7.20;;;3.80;;
76636;SDS011;65532;52.124;5.480;2023-04-15T07:16:10;7.53;;;3.58;;
76636;SDS011;65532;52.124;5.480;2023-04-15T07:18:36;9.20;;;5.05;;
76636;SDS011;65532;52.124;5.480;2023-04-15T07:21:03;9.82;;;5.20;;
76636;SDS011;65532;52.124;5.480;2023-04-15T07:23:29;7.50;;;3.67;;
76636;SDS011;65532;52.124;5.480;2023-04-15T07:25:56;10.88;;;4.40;;
76636;SDS011;65532;52.124;5.480;2023-04-15T07:28:22;7.85;;;3.92;;
76636;SDS011;65532;52.124;5.480;2023-04-15T07:30:49;9.23;;;5.03;;
76636;SDS011;65532;52.124;5.480;2023-04-15T07:33:15;8.27;;;3.78;;
76636;SDS011;65532;52.124;5.480;2023-04-15T07:35:42;6.95;;;4.53;;
76636;SDS011;65532;52.124;5.480;2023-04-15T07:38:08;8.57;;;4.28;;
76636;SDS011;65532;52.124;5.480;2023-04-15T07:40:35;6.95;;;3.88;;
76636;SDS011;65532;52.124;5.480;2023-04-15T07:43:01;7.07;;;4.00;;
76636;SDS011;65532;52.124;5.480;2023-04-15T07:45:28;6.68;;;4.55;;
76636;SDS011;65532;52.124;5.480;2023-04-15T07:47:55;7.15;;;3.38;;
76636;SDS011;65532;52.124;5.480;2023-04-15T07:50:21;7.97;;;3.03;;
76636;SDS011;65532;52.124;5.480;2023-04-15T07:52:49;7.55;;;3.03;;
76636;SDS011;65532;52.124;5.480;2023-04-15T07:55:16;7.85;;;3.60;;
76636;SDS011;65532;52.124;5.480;2023-04-15T07:57:45;6.20;;;3.88;;
76636;SDS011;65532;52.124;5.480;2023-04-15T08:00:12;6.38;;;3.47;;
76636;SDS011;65532;52.124;5.480;2023-04-15T08:02:40;6.25;;;2.50;;
76636;SDS011;65532;52.124;5.480;2023-04-15T08:05:08;5.28;;;2.80;;
76636;SDS011;65532;52.124;5.480;2023-04-15T08:07:36;5.72;;;3.05;;
76636;SDS011;65532;52.124;5.480;2023-04-15T08:10:03;5.78;;;3.58;;
76636;SDS011;65532;52.124;5.480;2023-04-15T08:12:30;5.82;;;2.65;;
76636;SDS011;65532;52.124;5.480;2023-04-15T08:14:57;5.05;;;1.98;;
76636;SDS011;65532;52.124;5.480;2023-04-15T08:17:23;6.50;;;3.53;;
76636;SDS011;65532;52.124;5.480;2023-04-15T08:19:50;5.95;;;2.47;;
76636;SDS011;65532;52.124;5.480;2023-04-15T08:22:17;5.90;;;2.33;;
76636;SDS011;65532;52.124;5.480;2023-04-15T08:24:46;7.07;;;2.30;;
76636;SDS011;65532;52.124;5.480;2023-04-15T08:27:12;4.45;;;2.88;;
76636;SDS011;65532;52.124;5.480;2023-04-15T08:29:39;3.15;;;1.02;;
76636;SDS011;65532;52.124;5.480;2023-04-15T08:32:05;4.47;;;2.55;;
76636;SDS011;65532;52.124;5.480;2023-04-15T08:34:32;4.57;;;3.50;;
76636;SDS011;65532;52.124;5.480;2023-04-15T08:36:59;5.75;;;3.42;;
76636;SDS011;65532;52.124;5.480;2023-04-15T08:39:26;3.42;;;1.40;;
76636;SDS011;65532;52.124;5.480;2023-04-15T08:42:00;4.10;;;2.58;;
76636;SDS011;65532;52.124;5.480;2023-04-15T08:44:32;5.40;;;4.28;;
76636;SDS011;65532;52.124;5.480;2023-04-15T08:47:00;2.88;;;1.70;;
76636;SDS011;65532;52.124;5.480;2023-04-15T08:49:28;6.15;;;2.40;;
76636;SDS011;65532;52.124;5.480;2023-04-15T08:51:56;3.92;;;1.80;;
76636;SDS011;65532;52.124;5.480;2023-04-15T08:54:25;11.40;;;4.07;;
76636;SDS011;65532;52.124;5.480;2023-04-15T08:56:52;9.25;;;3.67;;
76636;SDS011;65532;52.124;5.480;2023-04-15T08:59:22;4.55;;;2.22;;
76636;SDS011;65532;52.124;5.480;2023-04-15T09:01:49;3.85;;;1.95;;
76636;SDS011;65532;52.124;5.480;2023-04-15T09:04:18;5.32;;;2.88;;
76636;SDS011;65532;52.124;5.480;2023-04-15T09:06:45;4.30;;;2.33;;
76636;SDS011;65532;52.124;5.480;2023-04-15T09:09:12;3.33;;;2.13;;
76636;SDS011;65532;52.124;5.480;2023-04-15T09:11:39;3.92;;;2.40;;
76636;SDS011;65532;52.124;5.480;2023-04-15T09:14:07;6.18;;;2.88;;
76636;SDS011;65532;52.124;5.480;2023-04-15T09:19:23;5.18;;;3.05;;
76636;SDS011;65532;52.124;5.480;2023-04-15T09:21:54;7.45;;;2.45;;
76636;SDS011;65532;52.124;5.480;2023-04-15T09:24:24;5.20;;;2.08;;
76636;SDS011;65532;52.124;5.480;2023-04-15T09:26:58;7.03;;;4.70;;
76636;SDS011;65532;52.124;5.480;2023-04-15T09:29:25;4.55;;;1.38;;
76636;SDS011;65532;52.124;5.480;2023-04-15T09:31:52;6.05;;;3.22;;
76636;SDS011;65532;52.124;5.480;2023-04-15T09:34:18;7.13;;;3.15;;
76636;SDS011;65532;52.124;5.480;2023-04-15T09:39:14;3.72;;;2.38;;
76636;SDS011;65532;52.124;5.480;2023-04-15T09:41:41;4.65;;;1.77;;
76636;SDS011;65532;52.124;5.480;2023-04-15T09:44:21;4.40;;;2.55;;
76636;SDS011;65532;52.124;5.480;2023-04-15T09:46:51;6.10;;;2.22;;
76636;SDS011;65532;52.124;5.480;2023-04-15T09:49:17;3.65;;;1.70;;
76636;SDS011;65532;52.124;5.480;2023-04-15T09:51:45;3.22;;;1.23;;
76636;SDS011;65532;52.124;5.480;2023-04-15T09:54:33;3.55;;;1.77;;
76636;SDS011;65532;52.124;5.480;2023-04-15T09:57:06;4.50;;;2.13;;
76636;SDS011;65532;52.124;5.480;2023-04-15T09:59:35;4.25;;;1.83;;
76636;SDS011;65532;52.124;5.480;2023-04-15T10:02:03;5.35;;;2.28;;
76636;SDS011;65532;52.124;5.480;2023-04-15T10:04:32;4.18;;;1.48;;
76636;SDS011;65532;52.124;5.480;2023-04-15T10:07:02;3.78;;;2.03;;
76636;SDS011;65532;52.124;5.480;2023-04-15T10:09:30;4.13;;;1.15;;
76636;SDS011;65532;52.124;5.480;2023-04-15T10:11:58;2.78;;;1.65;;
76636;SDS011;65532;52.124;5.480;2023-04-15T10:14:26;7.38;;;2.85;;
76636;SDS011;65532;52.124;5.480;2023-04-15T10:16:57;3.63;;;1.67;;
76636;SDS011;65532;52.124;5.480;2023-04-15T10:19:27;3.50;;;0.93;;
76636;SDS011;65532;52.124;5.480;2023-04-15T10:21:57;4.60;;;2.60;;
76636;SDS011;65532;52.124;5.480;2023-04-15T10:24:24;2.45;;;1.52;;
76636;SDS011;65532;52.124;5.480;2023-04-15T10:26:52;4.57;;;2.35;;
76636;SDS011;65532;52.124;5.480;2023-04-15T10:29:20;5.28;;;1.60;;
76636;SDS011;65532;52.124;5.480;2023-04-15T10:31:48;3.67;;;1.98;;
76636;SDS011;65532;52.124;5.480;2023-04-15T10:34:15;5.25;;;3.60;;
76636;SDS011;65532;52.124;5.480;2023-04-15T10:36:43;2.95;;;0.77;;
76636;SDS011;65532;52.124;5.480;2023-04-15T10:44:36;2.50;;;1.25;;
76636;SDS011;65532;52.124;5.480;2023-04-15T10:47:05;2.97;;;1.20;;
76636;SDS011;65532;52.124;5.480;2023-04-15T10:49:44;3.72;;;1.00;;
76636;SDS011;65532;52.124;5.480;2023-04-15T10:52:12;2.75;;;1.80;;
76636;SDS011;65532;52.124;5.480;2023-04-15T10:54:40;6.60;;;1.15;;
76636;SDS011;65532;52.124;5.480;2023-04-15T10:57:08;3.97;;;2.67;;
76636;SDS011;65532;52.124;5.480;2023-04-15T10:59:59;3.25;;;1.02;;
76636;SDS011;65532;52.124;5.480;2023-04-15T11:02:38;3.15;;;1.63;;
76636;SDS011;65532;52.124;5.480;2023-04-15T11:05:05;4.35;;;1.63;;
76636;SDS011;65532;52.124;5.480;2023-04-15T11:07:33;2.10;;;0.95;;
76636;SDS011;65532;52.124;5.480;2023-04-15T11:12:39;3.15;;;1.60;;
76636;SDS011;65532;52.124;5.480;2023-04-15T11:17:55;3.10;;;1.42;;
76636;SDS011;65532;52.124;5.480;2023-04-15T11:20:23;2.70;;;0.63;;
76636;SDS011;65532;52.124;5.480;2023-04-15T11:22:51;3.33;;;2.00;;
76636;SDS011;65532;52.124;5.480;2023-04-15T11:25:38;3.13;;;1.52;;
76636;SDS011;65532;52.124;5.480;2023-04-15T11:28:05;4.32;;;1.95;;
76636;SDS011;65532;52.124;5.480;2023-04-15T11:30:33;3.38;;;1.52;;
76636;SDS011;65532;52.124;5.480;2023-04-15T11:33:01;4.70;;;1.35;;
76636;SDS011;65532;52.124;5.480;2023-04-15T11:35:32;2.78;;;1.42;;
76636;SDS011;65532;52.124;5.480;2023-04-15T11:38:02;2.60;;;1.40;;
76636;SDS011;65532;52.124;5.480;2023-04-15T11:40:33;2.72;;;1.15;;
76636;SDS011;65532;52.124;5.480;2023-04-15T11:45:35;1.60;;;0.65;;
76636;SDS011;65532;52.124;5.480;2023-04-15T11:48:10;2.80;;;0.50;;
76636;SDS011;65532;52.124;5.480;2023-04-15T11:50:38;1.08;;;0.38;;
76636;SDS011;65532;52.124;5.480;2023-04-15T11:53:09;2.42;;;0.43;;
76636;SDS011;65532;52.124;5.480;2023-04-15T11:55:43;2.53;;;0.50;;
76636;SDS011;65532;52.124;5.480;2023-04-15T11:58:18;2.90;;;0.73;;
76636;SDS011;65532;52.124;5.480;2023-04-15T12:00:52;1.90;;;0.63;;
76636;SDS011;65532;52.124;5.480;2023-04-15T12:03:27;1.95;;;0.55;;
76636;SDS011;65532;52.124;5.480;2023-04-15T12:06:09;2.53;;;0.80;;
76636;SDS011;65532;52.124;5.480;2023-04-15T12:11:26;1.10;;;0.30;;
76636;SDS011;65532;52.124;5.480;2023-04-15T12:13:57;4.85;;;0.63;;
76636;SDS011;65532;52.124;5.480;2023-04-15T12:16:28;1.88;;;0.52;;
76636;SDS011;65532;52.124;5.480;2023-04-15T12:18:55;2.13;;;0.77;;
76636;SDS011;65532;52.124;5.480;2023-04-15T12:21:24;2.40;;;0.32;;
76636;SDS011;65532;52.124;5.480;2023-04-15T12:23:53;2.78;;;0.40;;
76636;SDS011;65532;52.124;5.480;2023-04-15T12:26:28;3.58;;;0.88;;
76636;SDS011;65532;52.124;5.480;2023-04-15T12:29:00;3.08;;;0.55;;
76636;SDS011;65532;52.124;5.480;2023-04-15T12:31:27;2.67;;;0.50;;
76636;SDS011;65532;52.124;5.480;2023-04-15T12:33:54;1.88;;;0.40;;
76636;SDS011;65532;52.124;5.480;2023-04-15T12:36:21;1.65;;;0.65;;
76636;SDS011;65532;52.124;5.480;2023-04-15T12:38:49;1.45;;;0.32;;
76636;SDS011;65532;52.124;5.480;2023-04-15T12:41:15;2.05;;;0.50;;
76636;SDS011;65532;52.124;5.480;2023-04-15T12:43:45;4.28;;;0.57;;
76636;SDS011;65532;52.124;5.480;2023-04-15T12:46:14;1.55;;;0.73;;
76636;SDS011;65532;52.124;5.480;2023-04-15T12:48:40;2.25;;;0.50;;
76636;SDS011;65532;52.124;5.480;2023-04-15T12:51:07;3.72;;;0.50;;
76636;SDS011;65532;52.124;5.480;2023-04-15T12:53:34;3.35;;;0.55;;
76636;SDS011;65532;52.124;5.480;2023-04-15T12:56:00;2.60;;;0.38;;
76636;SDS011;65532;52.124;5.480;2023-04-15T12:58:27;2.30;;;0.52;;
76636;SDS011;65532;52.124;5.480;2023-04-15T13:00:53;3.70;;;0.90;;
76636;SDS011;65532;52.124;5.480;2023-04-15T13:03:20;3.47;;;0.55;;
76636;SDS011;65532;52.124;5.480;2023-04-15T13:05:46;2.60;;;0.63;;
76636;SDS011;65532;52.124;5.480;2023-04-15T13:08:13;1.40;;;0.30;;
76636;SDS011;65532;52.124;5.480;2023-04-15T13:10:39;3.05;;;0.68;;
76636;SDS011;65532;52.124;5.480;2023-04-15T13:13:07;1.33;;;0.32;;
76636;SDS011;65532;52.124;5.480;2023-04-15T13:15:34;2.65;;;0.52;;
76636;SDS011;65532;52.124;5.480;2023-04-15T13:18:00;1.95;;;0.70;;
76636;SDS011;65532;52.124;5.480;2023-04-15T13:20:27;3.35;;;0.63;;
76636;SDS011;65532;52.124;5.480;2023-04-15T13:22:53;3.22;;;0.98;;
76636;SDS011;65532;52.124;5.480;2023-04-15T13:25:20;7.93;;;0.55;;
76636;SDS011;65532;52.124;5.480;2023-04-15T13:27:46;2.05;;;0.52;;
76636;SDS011;65532;52.124;5.480;2023-04-15T13:30:13;2.03;;;1.00;;
76636;SDS011;65532;52.124;5.480;2023-04-15T13:32:39;3.78;;;0.70;;
76636;SDS011;65532;52.124;5.480;2023-04-15T13:35:06;2.83;;;0.63;;
76636;SDS011;65532;52.124;5.480;2023-04-15T13:37:33;2.83;;;0.45;;
76636;SDS011;65532;52.124;5.480;2023-04-15T13:39:59;2.80;;;0.95;;
76636;SDS011;65532;52.124;5.480;2023-04-15T13:42:26;1.98;;;0.45;;
76636;SDS011;65532;52.124;5.480;2023-04-15T13:44:52;1.38;;;0.30;;
76636;SDS011;65532;52.124;5.480;2023-04-15T13:47:19;1.60;;;0.38;;
76636;SDS011;65532;52.124;5.480;2023-04-15T13:49:45;2.33;;;0.50;;
76636;SDS011;65532;52.124;5.480;2023-04-15T13:52:12;2.55;;;0.60;;
76636;SDS011;65532;52.124;5.480;2023-04-15T13:54:38;1.50;;;0.50;;
76636;SDS011;65532;52.124;5.480;2023-04-15T13:57:05;3.05;;;1.13;;
76636;SDS011;65532;52.124;5.480;2023-04-15T13:59:32;0.73;;;0.20;;
76636;SDS011;65532;52.124;5.480;2023-04-15T14:02:00;1.48;;;0.40;;
76636;SDS011;65532;52.124;5.480;2023-04-15T14:04:26;3.08;;;0.47;;
76636;SDS011;65532;52.124;5.480;2023-04-15T14:06:53;1.85;;;0.40;;
76636;SDS011;65532;52.124;5.480;2023-04-15T14:09:20;1.92;;;1.27;;
76636;SDS011;65532;52.124;5.480;2023-04-15T14:11:51;1.80;;;0.70;;
76636;SDS011;65532;52.124;5.480;2023-04-15T14:14:18;1.60;;;0.70;;
76636;SDS011;65532;52.124;5.480;2023-04-15T14:16:44;1.30;;;0.43;;
76636;SDS011;65532;52.124;5.480;2023-04-15T14:19:11;2.72;;;0.32;;
76636;SDS011;65532;52.124;5.480;2023-04-15T14:21:37;1.02;;;0.43;;
76636;SDS011;65532;52.124;5.480;2023-04-15T14:24:04;3.40;;;0.35;;
76636;SDS011;65532;52.124;5.480;2023-04-15T14:26:30;3.83;;;0.80;;
76636;SDS011;65532;52.124;5.480;2023-04-15T14:28:57;1.40;;;0.45;;
76636;SDS011;65532;52.124;5.480;2023-04-15T14:31:24;2.78;;;0.38;;
76636;SDS011;65532;52.124;5.480;2023-04-15T14:33:50;3.10;;;0.50;;
76636;SDS011;65532;52.124;5.480;2023-04-15T14:36:17;3.60;;;0.52;;
76636;SDS011;65532;52.124;5.480;2023-04-15T14:38:43;3.35;;;0.63;;
76636;SDS011;65532;52.124;5.480;2023-04-15T14:41:12;5.15;;;0.82;;
76636;SDS011;65532;52.124;5.480;2023-04-15T14:43:38;6.50;;;0.70;;
76636;SDS011;65532;52.124;5.480;2023-04-15T14:46:04;6.63;;;0.95;;
76636;SDS011;65532;52.124;5.480;2023-04-15T14:48:31;3.72;;;0.82;;
76636;SDS011;65532;52.124;5.480;2023-04-15T14:50:58;4.05;;;0.85;;
76636;SDS011;65532;52.124;5.480;2023-04-15T14:53:24;2.08;;;1.33;;
76636;SDS011;65532;52.124;5.480;2023-04-15T14:55:51;3.40;;;0.50;;
76636;SDS011;65532;52.124;5.480;2023-04-15T14:58:17;3.45;;;0.70;;
76636;SDS011;65532;52.124;5.480;2023-04-15T15:00:44;3.00;;;0.32;;
76636;SDS011;65532;52.124;5.480;2023-04-15T15:03:11;4.40;;;1.05;;
76636;SDS011;65532;52.124;5.480;2023-04-15T15:05:38;2.40;;;0.52;;
76636;SDS011;65532;52.124;5.480;2023-04-15T15:08:06;4.45;;;0.73;;
76636;SDS011;65532;52.124;5.480;2023-04-15T15:10:34;3.47;;;0.45;;
76636;SDS011;65532;52.124;5.480;2023-04-15T15:13:15;5.43;;;0.40;;